createdAt,value
2023-05-06T00:00:15.000Z,9.277777777777779
2023-05-06T00:00:42.000Z,9.277777777777779
2023-05-06T00:01:05.000Z,9.277777777777779
2023-05-06T00:01:26.000Z,9.277777777777779
2023-05-06T00:02:01.000Z,9.222222222222221
2023-05-06T00:02:31.000Z,9.222222222222221
2023-05-06T00:03:00.000Z,9.222222222222221
2023-05-06T00:03:36.000Z,9.222222222222221
2023-05-06T00:03:57.000Z,9.222222222222221
2023-05-06T00:04:21.000Z,9.11111111111111
2023-05-06T00:04:56.000Z,9.11111111111111
2023-05-06T00:05:25.000Z,9.11111111111111
2023-05-06T00:06:01.000Z,9.11111111111111
2023-05-06T00:06:40.000Z,9.222222222222221
2023-05-06T00:07:10.000Z,9.222222222222221
2023-05-06T00:07:35.000Z,9.222222222222221
2023-05-06T00:07:57.000Z,9.277777777777779
2023-05-06T00:08:21.000Z,9.277777777777779
2023-05-06T00:08:55.000Z,9.277777777777779
2023-05-06T00:09:26.000Z,9.277777777777779
2023-05-06T00:10:01.000Z,9.277777777777779
2023-05-06T00:10:31.000Z,9.222222222222221
2023-05-06T00:11:00.000Z,9.222222222222221
2023-05-06T00:11:36.000Z,9.222222222222221
2023-05-06T00:11:57.000Z,9.11111111111111
2023-05-06T00:12:21.000Z,9.11111111111111
2023-05-06T00:12:52.000Z,9.11111111111111
2023-05-06T00:13:17.000Z,9.11111111111111
2023-05-06T00:13:42.000Z,9.000000000000002
2023-05-06T00:14:12.000Z,9.000000000000002
2023-05-06T00:14:40.000Z,9.000000000000002
2023-05-06T00:15:10.000Z,9.000000000000002
2023-05-06T00:15:35.000Z,9.000000000000002
2023-05-06T00:16:00.000Z,9.000000000000002
2023-05-06T00:16:24.000Z,9.000000000000002
2023-05-06T00:16:55.000Z,9.000000000000002
2023-05-06T00:17:26.000Z,8.88888888888889
2023-05-06T00:18:01.000Z,8.88888888888889
2023-05-06T00:18:30.000Z,8.88888888888889
2023-05-06T00:19:01.000Z,8.88888888888889
2023-05-06T00:19:36.000Z,8.88888888888889
2023-05-06T00:19:57.000Z,8.88888888888889
2023-05-06T00:20:20.000Z,8.88888888888889
2023-05-06T00:20:56.000Z,8.88888888888889
2023-05-06T00:21:26.000Z,8.88888888888889
2023-05-06T00:22:01.000Z,8.88888888888889
2023-05-06T00:22:40.000Z,9.000000000000002
2023-05-06T00:23:01.000Z,9.000000000000002
2023-05-06T00:23:36.000Z,9.000000000000002
2023-05-06T00:23:57.000Z,9.000000000000002
2023-05-06T00:24:21.000Z,9.000000000000002
2023-05-06T00:24:56.000Z,9.000000000000002
2023-05-06T00:25:26.000Z,9.000000000000002
2023-05-06T00:26:01.000Z,9.000000000000002
2023-05-06T00:26:31.000Z,9.000000000000002
2023-05-06T00:27:00.000Z,9.000000000000002
2023-05-06T00:27:36.000Z,9.000000000000002
2023-05-06T00:27:57.000Z,9.000000000000002
2023-05-06T00:28:21.000Z,8.88888888888889
2023-05-06T00:28:57.000Z,8.88888888888889
2023-05-06T00:29:26.000Z,8.88888888888889
2023-05-06T00:30:01.000Z,8.88888888888889
2023-05-06T00:30:31.000Z,8.88888888888889
2023-05-06T00:31:00.000Z,8.88888888888889
2023-05-06T00:31:32.000Z,8.88888888888889
2023-05-06T00:31:51.000Z,8.88888888888889
2023-05-06T00:32:21.000Z,9.000000000000002
2023-05-06T00:32:56.000Z,9.11111111111111
2023-05-06T00:33:26.000Z,9.11111111111111
2023-05-06T00:34:01.000Z,9.11111111111111
2023-05-06T00:34:32.000Z,9.11111111111111
2023-05-06T00:34:56.000Z,9.11111111111111
2023-05-06T00:35:22.000Z,9.11111111111111
2023-05-06T00:35:50.000Z,9.11111111111111
2023-05-06T00:36:20.000Z,9.11111111111111
2023-05-06T00:36:40.000Z,9.11111111111111
2023-05-06T00:36:56.000Z,9.11111111111111
2023-05-06T00:37:26.000Z,9.11111111111111
2023-05-06T00:38:01.000Z,9.11111111111111
2023-05-06T00:38:31.000Z,9.11111111111111
2023-05-06T00:39:00.000Z,9.11111111111111
2023-05-06T00:39:16.000Z,9.000000000000002
2023-05-06T00:39:36.000Z,9.000000000000002
2023-05-06T00:39:57.000Z,9.000000000000002
2023-05-06T00:40:20.000Z,9.000000000000002
2023-05-06T00:40:41.000Z,9.000000000000002
2023-05-06T00:41:11.000Z,9.000000000000002
2023-05-06T00:41:41.000Z,9.000000000000002
2023-05-06T00:42:01.000Z,9.000000000000002
2023-05-06T00:42:31.000Z,9.000000000000002
2023-05-06T00:43:01.000Z,9.000000000000002
2023-05-06T00:43:36.000Z,9.000000000000002
2023-05-06T00:43:57.000Z,9.000000000000002
2023-05-06T00:44:20.000Z,9.000000000000002
2023-05-06T00:44:56.000Z,9.000000000000002
2023-05-06T00:45:26.000Z,9.000000000000002
2023-05-06T00:46:00.000Z,9.000000000000002
2023-05-06T00:46:31.000Z,9.000000000000002
2023-05-06T00:47:01.000Z,9.000000000000002
2023-05-06T00:47:45.000Z,9.000000000000002
2023-05-06T00:48:07.000Z,9.000000000000002
2023-05-06T00:48:41.000Z,9.000000000000002
2023-05-06T00:49:09.000Z,9.000000000000002
2023-05-06T00:49:40.000Z,9.000000000000002
2023-05-06T00:50:16.000Z,9.000000000000002
2023-05-06T00:50:45.000Z,9.000000000000002
2023-05-06T00:51:01.000Z,9.000000000000002
2023-05-06T00:51:36.000Z,9.11111111111111
2023-05-06T00:51:57.000Z,9.11111111111111
2023-05-06T00:52:21.000Z,9.11111111111111
2023-05-06T00:52:56.000Z,9.11111111111111
2023-05-06T00:53:35.000Z,9.11111111111111
2023-05-06T00:54:02.000Z,9.11111111111111
2023-05-06T00:54:32.000Z,9.11111111111111
2023-05-06T00:55:00.000Z,9.11111111111111
2023-05-06T00:55:36.000Z,9.11111111111111
2023-05-06T00:55:59.000Z,9.11111111111111
2023-05-06T00:56:25.000Z,9.000000000000002
2023-05-06T00:57:05.000Z,9.000000000000002
2023-05-06T00:57:24.000Z,9.000000000000002
2023-05-06T00:57:41.000Z,9.000000000000002
2023-05-06T00:58:15.000Z,8.88888888888889
2023-05-06T00:58:45.000Z,8.88888888888889
2023-05-06T00:59:16.000Z,8.88888888888889
2023-05-06T00:59:51.000Z,8.88888888888889
2023-05-06T01:00:20.000Z,8.88888888888889
2023-05-06T01:00:57.000Z,8.88888888888889
2023-05-06T01:01:26.000Z,8.88888888888889
2023-05-06T01:02:01.000Z,8.88888888888889
2023-05-06T01:02:31.000Z,9.000000000000002
2023-05-06T01:02:56.000Z,9.000000000000002
2023-05-06T01:03:22.000Z,9.11111111111111
2023-05-06T01:03:48.000Z,9.11111111111111
2023-05-06T01:04:15.000Z,9.222222222222221
2023-05-06T01:04:41.000Z,9.222222222222221
2023-05-06T01:04:56.000Z,9.222222222222221
2023-05-06T01:05:26.000Z,9.277777777777779
2023-05-06T01:06:01.000Z,9.277777777777779
2023-05-06T01:06:31.000Z,9.277777777777779
2023-05-06T01:07:01.000Z,9.222222222222221
2023-05-06T01:07:32.000Z,9.222222222222221
2023-05-06T01:07:51.000Z,9.11111111111111
2023-05-06T01:08:21.000Z,9.11111111111111
2023-05-06T01:08:55.000Z,9.11111111111111
2023-05-06T01:09:26.000Z,9.000000000000002
2023-05-06T01:10:10.000Z,9.000000000000002
2023-05-06T01:10:33.000Z,8.88888888888889
2023-05-06T01:11:00.000Z,8.88888888888889
2023-05-06T01:11:36.000Z,8.777777777777777
2023-05-06T01:11:59.000Z,8.777777777777777
2023-05-06T01:12:25.000Z,8.722222222222223
2023-05-06T01:12:56.000Z,8.722222222222223
2023-05-06T01:13:26.000Z,8.722222222222223
2023-05-06T01:14:01.000Z,8.722222222222223
2023-05-06T01:14:31.000Z,8.777777777777777
2023-05-06T01:15:01.000Z,8.777777777777777
2023-05-06T01:15:32.000Z,8.88888888888889
2023-05-06T01:15:51.000Z,8.88888888888889
2023-05-06T01:16:21.000Z,8.88888888888889
2023-05-06T01:16:55.000Z,8.777777777777777
2023-05-06T01:17:25.000Z,8.777777777777777
2023-05-06T01:18:01.000Z,8.777777777777777
2023-05-06T01:18:31.000Z,8.777777777777777
2023-05-06T01:18:56.000Z,8.777777777777777
2023-05-06T01:19:22.000Z,8.777777777777777
2023-05-06T01:19:48.000Z,8.722222222222223
2023-05-06T01:20:15.000Z,8.722222222222223
2023-05-06T01:20:42.000Z,8.722222222222223
2023-05-06T01:21:05.000Z,8.722222222222223
2023-05-06T01:21:29.000Z,8.722222222222223
2023-05-06T01:21:56.000Z,8.722222222222223
2023-05-06T01:22:12.000Z,8.722222222222223
2023-05-06T01:22:31.000Z,8.722222222222223
2023-05-06T01:23:01.000Z,8.722222222222223
2023-05-06T01:23:36.000Z,8.61111111111111
2023-05-06T01:23:57.000Z,8.61111111111111
2023-05-06T01:24:21.000Z,8.61111111111111
2023-05-06T01:24:56.000Z,8.61111111111111
2023-05-06T01:25:25.000Z,8.61111111111111
2023-05-06T01:26:01.000Z,8.499999999999998
2023-05-06T01:26:31.000Z,8.499999999999998
2023-05-06T01:27:01.000Z,8.499999999999998
2023-05-06T01:27:16.000Z,8.499999999999998
2023-05-06T01:27:45.000Z,8.499999999999998
2023-05-06T01:28:15.000Z,8.38888888888889
2023-05-06T01:28:42.000Z,8.38888888888889
2023-05-06T01:29:05.000Z,8.38888888888889
2023-05-06T01:29:28.000Z,8.38888888888889
2023-05-06T01:29:56.000Z,8.277777777777779
2023-05-06T01:30:12.000Z,8.277777777777779
2023-05-06T01:30:30.000Z,8.277777777777779
2023-05-06T01:30:56.000Z,8.277777777777779
2023-05-06T01:31:22.000Z,8.277777777777779
2023-05-06T01:31:51.000Z,8.222222222222221
2023-05-06T01:32:21.000Z,8.222222222222221
2023-05-06T01:32:56.000Z,8.222222222222221
2023-05-06T01:33:26.000Z,8.222222222222221
2023-05-06T01:34:01.000Z,8.11111111111111
2023-05-06T01:34:31.000Z,8.11111111111111
2023-05-06T01:35:01.000Z,8.11111111111111
2023-05-06T01:35:36.000Z,8.11111111111111
2023-05-06T01:35:57.000Z,8.11111111111111
2023-05-06T01:36:20.000Z,8.11111111111111
2023-05-06T01:36:55.000Z,8.11111111111111
2023-05-06T01:37:26.000Z,8.222222222222221
2023-05-06T01:38:01.000Z,8.222222222222221
2023-05-06T01:38:30.000Z,8.222222222222221
2023-05-06T01:39:01.000Z,8.222222222222221
2023-05-06T01:39:36.000Z,8.222222222222221
2023-05-06T01:39:57.000Z,8.222222222222221
2023-05-06T01:40:21.000Z,8.222222222222221
2023-05-06T01:40:56.000Z,8.222222222222221
2023-05-06T01:41:26.000Z,8.277777777777779
2023-05-06T01:42:01.000Z,8.277777777777779
2023-05-06T01:42:31.000Z,8.277777777777779
2023-05-06T01:43:01.000Z,8.277777777777779
2023-05-06T01:43:32.000Z,8.277777777777779
2023-05-06T01:43:50.000Z,8.277777777777779
2023-05-06T01:44:21.000Z,8.277777777777779
2023-05-06T01:44:56.000Z,8.277777777777779
2023-05-06T01:45:26.000Z,8.277777777777779
2023-05-06T01:46:01.000Z,8.277777777777779
2023-05-06T01:46:31.000Z,8.277777777777779
2023-05-06T01:47:01.000Z,8.277777777777779
2023-05-06T01:47:32.000Z,8.277777777777779
2023-05-06T01:47:51.000Z,8.277777777777779
2023-05-06T01:48:21.000Z,8.222222222222221
2023-05-06T01:48:52.000Z,8.222222222222221
2023-05-06T01:49:17.000Z,8.222222222222221
2023-05-06T01:49:41.000Z,8.222222222222221
2023-05-06T01:50:15.000Z,8.222222222222221
2023-05-06T01:50:46.000Z,8.222222222222221
2023-05-06T01:51:32.000Z,8.222222222222221
2023-05-06T01:51:51.000Z,8.222222222222221
2023-05-06T01:52:20.000Z,8.277777777777779
2023-05-06T01:52:56.000Z,8.277777777777779
2023-05-06T01:53:26.000Z,8.38888888888889
2023-05-06T01:54:01.000Z,8.38888888888889
2023-05-06T01:54:31.000Z,8.38888888888889
2023-05-06T01:55:01.000Z,8.38888888888889
2023-05-06T01:55:36.000Z,8.38888888888889
2023-05-06T01:55:57.000Z,8.38888888888889
2023-05-06T01:56:21.000Z,8.38888888888889
2023-05-06T01:56:56.000Z,8.38888888888889
2023-05-06T01:57:26.000Z,8.38888888888889
2023-05-06T01:58:01.000Z,8.38888888888889
2023-05-06T01:58:31.000Z,8.499999999999998
2023-05-06T01:59:01.000Z,8.499999999999998
2023-05-06T01:59:36.000Z,8.499999999999998
2023-05-06T01:59:57.000Z,8.499999999999998
2023-05-06T02:00:21.000Z,8.499999999999998
2023-05-06T02:00:55.000Z,8.499999999999998
2023-05-06T02:01:24.000Z,8.499999999999998
2023-05-06T02:01:50.000Z,8.499999999999998
2023-05-06T02:02:25.000Z,8.499999999999998
2023-05-06T02:02:46.000Z,8.38888888888889
2023-05-06T02:03:16.000Z,8.38888888888889
2023-05-06T02:03:36.000Z,8.38888888888889
2023-05-06T02:03:59.000Z,8.38888888888889
2023-05-06T02:04:21.000Z,8.38888888888889
2023-05-06T02:04:55.000Z,8.38888888888889
2023-05-06T02:05:26.000Z,8.38888888888889
2023-05-06T02:06:01.000Z,8.38888888888889
2023-05-06T02:06:31.000Z,8.38888888888889
2023-05-06T02:07:01.000Z,8.38888888888889
2023-05-06T02:07:36.000Z,8.38888888888889
2023-05-06T02:07:57.000Z,8.277777777777779
2023-05-06T02:08:30.000Z,8.277777777777779
2023-05-06T02:08:56.000Z,8.277777777777779
2023-05-06T02:09:25.000Z,8.277777777777779
2023-05-06T02:10:01.000Z,8.222222222222221
2023-05-06T02:10:31.000Z,8.222222222222221
2023-05-06T02:11:01.000Z,8.222222222222221
2023-05-06T02:11:36.000Z,8.222222222222221
2023-05-06T02:11:57.000Z,8.222222222222221
2023-05-06T02:12:21.000Z,8.222222222222221
2023-05-06T02:12:56.000Z,8.222222222222221
2023-05-06T02:13:26.000Z,8.222222222222221
2023-05-06T02:14:01.000Z,8.277777777777779
2023-05-06T02:14:28.000Z,8.38888888888889
2023-05-06T02:14:46.000Z,8.38888888888889
2023-05-06T02:15:32.000Z,8.38888888888889
2023-05-06T02:15:51.000Z,8.38888888888889
2023-05-06T02:16:20.000Z,8.38888888888889
2023-05-06T02:16:55.000Z,8.38888888888889
2023-05-06T02:17:26.000Z,8.38888888888889
2023-05-06T02:18:01.000Z,8.277777777777779
2023-05-06T02:18:30.000Z,8.277777777777779
2023-05-06T02:19:01.000Z,8.277777777777779
2023-05-06T02:19:32.000Z,8.222222222222221
2023-05-06T02:19:51.000Z,8.222222222222221
2023-05-06T02:20:26.000Z,8.222222222222221
2023-05-06T02:20:56.000Z,8.222222222222221
2023-05-06T02:21:25.000Z,8.222222222222221
2023-05-06T02:22:00.000Z,8.222222222222221
2023-05-06T02:22:31.000Z,8.222222222222221
2023-05-06T02:23:01.000Z,8.222222222222221
2023-05-06T02:23:35.000Z,8.222222222222221
2023-05-06T02:23:57.000Z,8.222222222222221
2023-05-06T02:24:21.000Z,8.222222222222221
2023-05-06T02:24:55.000Z,8.222222222222221
2023-05-06T02:25:26.000Z,8.222222222222221
2023-05-06T02:26:00.000Z,8.222222222222221
2023-05-06T02:26:30.000Z,8.222222222222221
2023-05-06T02:27:01.000Z,8.222222222222221
2023-05-06T02:27:35.000Z,8.222222222222221
2023-05-06T02:27:57.000Z,8.11111111111111
2023-05-06T02:28:21.000Z,8.11111111111111
2023-05-06T02:28:56.000Z,8.11111111111111
2023-05-06T02:29:27.000Z,8.11111111111111
2023-05-06T02:30:01.000Z,8.11111111111111
2023-05-06T02:30:30.000Z,8.11111111111111
2023-05-06T02:31:00.000Z,8.11111111111111
2023-05-06T02:31:32.000Z,8.11111111111111
2023-05-06T02:31:57.000Z,8.222222222222221
2023-05-06T02:32:20.000Z,8.277777777777779
2023-05-06T02:32:56.000Z,8.277777777777779
2023-05-06T02:33:25.000Z,8.277777777777779
2023-05-06T02:34:01.000Z,8.38888888888889
2023-05-06T02:34:30.000Z,8.38888888888889
2023-05-06T02:35:01.000Z,8.38888888888889
2023-05-06T02:35:32.000Z,8.499999999999998
2023-05-06T02:35:51.000Z,8.499999999999998
2023-05-06T02:36:21.000Z,8.61111111111111
2023-05-06T02:36:56.000Z,8.61111111111111
2023-05-06T02:37:25.000Z,8.61111111111111
2023-05-06T02:38:10.000Z,8.499999999999998
2023-05-06T02:38:31.000Z,8.499999999999998
2023-05-06T02:39:00.000Z,8.499999999999998
2023-05-06T02:39:36.000Z,8.38888888888889
2023-05-06T02:39:57.000Z,8.277777777777779
2023-05-06T02:40:20.000Z,8.222222222222221
2023-05-06T02:40:56.000Z,8.222222222222221
2023-05-06T02:41:26.000Z,8.222222222222221
2023-05-06T02:42:01.000Z,8.222222222222221
2023-05-06T02:42:31.000Z,8.222222222222221
2023-05-06T02:43:00.000Z,8.222222222222221
2023-05-06T02:43:45.000Z,8.222222222222221
2023-05-06T02:44:15.000Z,8.222222222222221
2023-05-06T02:44:42.000Z,8.222222222222221
2023-05-06T02:45:05.000Z,8.222222222222221
2023-05-06T02:45:28.000Z,8.277777777777779
2023-05-06T02:45:56.000Z,8.277777777777779
2023-05-06T02:46:12.000Z,8.277777777777779
2023-05-06T02:46:46.000Z,8.277777777777779
2023-05-06T02:47:16.000Z,8.277777777777779
2023-05-06T02:47:36.000Z,8.277777777777779
2023-05-06T02:47:58.000Z,8.277777777777779
2023-05-06T02:48:21.000Z,8.277777777777779
2023-05-06T02:48:56.000Z,8.277777777777779
2023-05-06T02:49:25.000Z,8.222222222222221
2023-05-06T02:50:01.000Z,8.222222222222221
2023-05-06T02:50:31.000Z,8.277777777777779
2023-05-06T02:51:00.000Z,8.277777777777779
2023-05-06T02:51:36.000Z,8.277777777777779
2023-05-06T02:51:57.000Z,8.38888888888889
2023-05-06T02:52:25.000Z,8.38888888888889
2023-05-06T02:52:56.000Z,8.38888888888889
2023-05-06T02:53:25.000Z,8.38888888888889
2023-05-06T02:54:00.000Z,8.38888888888889
2023-05-06T02:54:30.000Z,8.38888888888889
2023-05-06T02:55:00.000Z,8.277777777777779
2023-05-06T02:55:36.000Z,8.277777777777779
2023-05-06T02:55:58.000Z,8.277777777777779
2023-05-06T02:56:21.000Z,8.277777777777779
2023-05-06T02:56:55.000Z,8.277777777777779
2023-05-06T02:57:25.000Z,8.277777777777779
2023-05-06T02:58:00.000Z,8.277777777777779
2023-05-06T02:58:31.000Z,8.277777777777779
2023-05-06T02:59:01.000Z,8.277777777777779
2023-05-06T02:59:36.000Z,8.277777777777779
2023-05-06T02:59:57.000Z,8.277777777777779
2023-05-06T03:00:21.000Z,8.277777777777779
2023-05-06T03:00:55.000Z,8.277777777777779
2023-05-06T03:01:26.000Z,8.38888888888889
2023-05-06T03:02:01.000Z,8.499999999999998
2023-05-06T03:02:31.000Z,8.499999999999998
2023-05-06T03:03:01.000Z,8.38888888888889
2023-05-06T03:03:35.000Z,8.38888888888889
2023-05-06T03:03:58.000Z,8.38888888888889
2023-05-06T03:04:25.000Z,8.38888888888889
2023-05-06T03:05:05.000Z,8.38888888888889
2023-05-06T03:05:28.000Z,8.38888888888889
2023-05-06T03:05:56.000Z,8.38888888888889
2023-05-06T03:06:12.000Z,8.38888888888889
2023-05-06T03:06:30.000Z,8.38888888888889
2023-05-06T03:06:56.000Z,8.38888888888889
2023-05-06T03:07:22.000Z,8.38888888888889
2023-05-06T03:07:48.000Z,8.38888888888889
2023-05-06T03:08:15.000Z,8.38888888888889
2023-05-06T03:08:41.000Z,8.277777777777779
2023-05-06T03:09:10.000Z,8.277777777777779
2023-05-06T03:09:41.000Z,8.38888888888889
2023-05-06T03:10:15.000Z,8.277777777777779
2023-05-06T03:10:45.000Z,8.277777777777779
2023-05-06T03:11:16.000Z,8.277777777777779
2023-05-06T03:11:36.000Z,8.222222222222221
2023-05-06T03:11:57.000Z,8.222222222222221
2023-05-06T03:12:21.000Z,8.222222222222221
2023-05-06T03:12:55.000Z,8.222222222222221
2023-05-06T03:13:25.000Z,8.11111111111111
2023-05-06T03:14:00.000Z,8.11111111111111
2023-05-06T03:14:31.000Z,8.11111111111111
2023-05-06T03:15:00.000Z,8.11111111111111
2023-05-06T03:15:35.000Z,8.11111111111111
2023-05-06T03:15:57.000Z,8.0
2023-05-06T03:16:21.000Z,8.0
2023-05-06T03:16:56.000Z,8.0
2023-05-06T03:17:26.000Z,8.0
2023-05-06T03:18:01.000Z,8.0
2023-05-06T03:18:30.000Z,8.11111111111111
2023-05-06T03:19:00.000Z,8.11111111111111
2023-05-06T03:19:35.000Z,8.11111111111111
2023-05-06T03:19:57.000Z,8.11111111111111
2023-05-06T03:20:25.000Z,8.222222222222221
2023-05-06T03:21:05.000Z,8.222222222222221
2023-05-06T03:21:28.000Z,8.222222222222221
2023-05-06T03:21:56.000Z,8.222222222222221
2023-05-06T03:22:12.000Z,8.11111111111111
2023-05-06T03:22:30.000Z,8.11111111111111
2023-05-06T03:22:56.000Z,8.11111111111111
2023-05-06T03:23:22.000Z,8.0
2023-05-06T03:23:48.000Z,8.0
2023-05-06T03:24:06.000Z,8.0
2023-05-06T03:24:41.000Z,8.0
2023-05-06T03:25:10.000Z,8.0
2023-05-06T03:25:41.000Z,8.11111111111111
2023-05-06T03:26:15.000Z,8.222222222222221
2023-05-06T03:26:46.000Z,8.222222222222221
2023-05-06T03:27:21.000Z,8.222222222222221
2023-05-06T03:27:51.000Z,8.222222222222221
2023-05-06T03:28:21.000Z,8.277777777777779
2023-05-06T03:28:55.000Z,8.277777777777779
2023-05-06T03:29:26.000Z,8.277777777777779
2023-05-06T03:30:01.000Z,8.277777777777779
2023-05-06T03:30:28.000Z,8.38888888888889
2023-05-06T03:30:55.000Z,8.38888888888889
2023-05-06T03:31:22.000Z,8.499999999999998
2023-05-06T03:31:48.000Z,8.499999999999998
2023-05-06T03:32:25.000Z,8.499999999999998
2023-05-06T03:33:05.000Z,8.499999999999998
2023-05-06T03:33:28.000Z,8.38888888888889
2023-05-06T03:33:56.000Z,8.38888888888889
2023-05-06T03:34:12.000Z,8.38888888888889
2023-05-06T03:34:55.000Z,8.38888888888889
2023-05-06T03:35:22.000Z,8.38888888888889
2023-05-06T03:35:48.000Z,8.38888888888889
2023-05-06T03:36:15.000Z,8.38888888888889
2023-05-06T03:36:40.000Z,8.38888888888889
2023-05-06T03:37:08.000Z,8.277777777777779
2023-05-06T03:37:41.000Z,8.277777777777779
2023-05-06T03:38:15.000Z,8.277777777777779
2023-05-06T03:38:46.000Z,8.277777777777779
2023-05-06T03:39:18.000Z,8.277777777777779
2023-05-06T03:39:51.000Z,8.277777777777779
2023-05-06T03:40:21.000Z,8.222222222222221
2023-05-06T03:40:55.000Z,8.222222222222221
2023-05-06T03:41:26.000Z,8.222222222222221
2023-05-06T03:42:10.000Z,8.222222222222221
2023-05-06T03:42:34.000Z,8.222222222222221
2023-05-06T03:43:01.000Z,8.11111111111111
2023-05-06T03:43:36.000Z,8.11111111111111
2023-05-06T03:43:57.000Z,8.11111111111111
2023-05-06T03:44:20.000Z,8.11111111111111
2023-05-06T03:44:55.000Z,8.0
2023-05-06T03:45:26.000Z,8.0
2023-05-06T03:46:01.000Z,8.0
2023-05-06T03:46:31.000Z,8.0
2023-05-06T03:47:00.000Z,8.0
2023-05-06T03:47:36.000Z,8.0
2023-05-06T03:47:57.000Z,8.11111111111111
2023-05-06T03:48:21.000Z,8.11111111111111
2023-05-06T03:48:56.000Z,8.11111111111111
2023-05-06T03:49:26.000Z,8.11111111111111
2023-05-06T03:50:01.000Z,8.11111111111111
2023-05-06T03:50:31.000Z,8.11111111111111
2023-05-06T03:51:01.000Z,8.11111111111111
2023-05-06T03:51:36.000Z,8.222222222222221
2023-05-06T03:51:57.000Z,8.277777777777779
2023-05-06T03:52:20.000Z,8.499999999999998
2023-05-06T03:52:55.000Z,8.499999999999998
2023-05-06T03:53:26.000Z,8.499999999999998
2023-05-06T03:54:01.000Z,8.61111111111111
2023-05-06T03:54:40.000Z,8.61111111111111
2023-05-06T03:55:10.000Z,8.499999999999998
2023-05-06T03:55:35.000Z,8.61111111111111
2023-05-06T03:55:57.000Z,8.61111111111111
2023-05-06T03:56:21.000Z,8.61111111111111
2023-05-06T03:56:56.000Z,8.61111111111111
2023-05-06T03:57:26.000Z,8.499999999999998
2023-05-06T03:58:01.000Z,8.499999999999998
2023-05-06T03:58:28.000Z,8.499999999999998
2023-05-06T03:58:46.000Z,8.499999999999998
2023-05-06T03:59:32.000Z,8.38888888888889
2023-05-06T03:59:57.000Z,8.38888888888889
2023-05-06T04:00:21.000Z,8.38888888888889
2023-05-06T04:00:56.000Z,8.277777777777779
2023-05-06T04:01:26.000Z,8.277777777777779
2023-05-06T04:02:10.000Z,8.277777777777779
2023-05-06T04:02:34.000Z,8.38888888888889
2023-05-06T04:03:01.000Z,8.38888888888889
2023-05-06T04:03:36.000Z,8.38888888888889
2023-05-06T04:03:57.000Z,8.38888888888889
2023-05-06T04:04:21.000Z,8.38888888888889
2023-05-06T04:04:56.000Z,8.38888888888889
2023-05-06T04:05:26.000Z,8.38888888888889
2023-05-06T04:06:01.000Z,8.38888888888889
2023-05-06T04:06:30.000Z,8.38888888888889
2023-05-06T04:07:01.000Z,8.38888888888889
2023-05-06T04:07:32.000Z,8.38888888888889
2023-05-06T04:07:51.000Z,8.38888888888889
2023-05-06T04:08:30.000Z,8.38888888888889
2023-05-06T04:08:57.000Z,8.38888888888889
2023-05-06T04:09:25.000Z,8.277777777777779
2023-05-06T04:10:01.000Z,8.277777777777779
2023-05-06T04:10:31.000Z,8.277777777777779
2023-05-06T04:11:00.000Z,8.277777777777779
2023-05-06T04:11:35.000Z,8.277777777777779
2023-05-06T04:11:57.000Z,8.277777777777779
2023-05-06T04:12:21.000Z,8.38888888888889
2023-05-06T04:12:56.000Z,8.499999999999998
2023-05-06T04:13:26.000Z,8.499999999999998
2023-05-06T04:14:01.000Z,8.499999999999998
2023-05-06T04:14:30.000Z,8.499999999999998
2023-05-06T04:15:10.000Z,8.499999999999998
2023-05-06T04:15:35.000Z,8.38888888888889
2023-05-06T04:16:00.000Z,8.38888888888889
2023-05-06T04:16:23.000Z,8.38888888888889
2023-05-06T04:16:52.000Z,8.38888888888889
2023-05-06T04:17:08.000Z,8.38888888888889
2023-05-06T04:17:26.000Z,8.38888888888889
2023-05-06T04:18:01.000Z,8.38888888888889
2023-05-06T04:18:31.000Z,8.38888888888889
2023-05-06T04:19:01.000Z,8.38888888888889
2023-05-06T04:19:36.000Z,8.499999999999998
2023-05-06T04:19:57.000Z,8.499999999999998
2023-05-06T04:20:20.000Z,8.499999999999998
2023-05-06T04:20:56.000Z,8.499999999999998
2023-05-06T04:21:25.000Z,8.38888888888889
2023-05-06T04:22:00.000Z,8.38888888888889
2023-05-06T04:22:31.000Z,8.38888888888889
2023-05-06T04:22:56.000Z,8.38888888888889
2023-05-06T04:23:22.000Z,8.38888888888889
2023-05-06T04:23:48.000Z,8.38888888888889
2023-05-06T04:24:15.000Z,8.38888888888889
2023-05-06T04:24:42.000Z,8.38888888888889
2023-05-06T04:25:05.000Z,8.38888888888889
2023-05-06T04:25:28.000Z,8.38888888888889
2023-05-06T04:25:56.000Z,8.38888888888889
2023-05-06T04:26:12.000Z,8.38888888888889
2023-05-06T04:26:30.000Z,8.38888888888889
2023-05-06T04:26:56.000Z,8.38888888888889
2023-05-06T04:27:22.000Z,8.499999999999998
2023-05-06T04:27:48.000Z,8.499999999999998
2023-05-06T04:28:15.000Z,8.499999999999998
2023-05-06T04:28:42.000Z,8.499999999999998
2023-05-06T04:29:05.000Z,8.499999999999998
2023-05-06T04:29:28.000Z,8.499999999999998
2023-05-06T04:30:01.000Z,8.499999999999998
2023-05-06T04:30:31.000Z,8.499999999999998
2023-05-06T04:31:01.000Z,8.61111111111111
2023-05-06T04:31:35.000Z,8.61111111111111
2023-05-06T04:31:58.000Z,8.61111111111111
2023-05-06T04:32:21.000Z,8.61111111111111
2023-05-06T04:32:56.000Z,8.61111111111111
2023-05-06T04:33:26.000Z,8.61111111111111
2023-05-06T04:34:01.000Z,8.61111111111111
2023-05-06T04:34:31.000Z,8.61111111111111